createdAt,value
2018-10-19T00:01:47.166Z,99040.03
2018-10-19T00:04:16.358Z,99038.70
2018-10-19T00:06:45.601Z,99037.66
2018-10-19T00:09:14.923Z,99038.91
2018-10-19T00:11:44.105Z,99037.58
2018-10-19T00:14:13.276Z,99036.53
2018-10-19T00:16:42.428Z,99037.58
2018-10-19T00:19:11.635Z,99037.27
2018-10-19T00:21:40.839Z,99036.41
2018-10-19T00:24:09.989Z,99031.55
2018-10-19T00:26:39.217Z,99034.89
2018-10-19T00:29:12.028Z,99036.89
2018-10-19T00:31:41.139Z,99034.70
2018-10-19T00:34:10.629Z,99028.77
2018-10-19T00:36:40.054Z,99035.69
2018-10-19T00:39:11.031Z,99034.25
2018-10-19T00:41:40.215Z,99029.41
2018-10-19T00:44:09.427Z,99030.12
2018-10-19T00:46:38.733Z,99031.40
2018-10-19T00:49:08.194Z,99027.92
2018-10-19T00:51:37.944Z,99025.77
2018-10-19T00:54:07.204Z,99030.34
2018-10-19T00:56:36.529Z,99034.75
2018-10-19T00:59:05.769Z,99031.00
2018-10-19T01:01:34.954Z,99033.20
2018-10-19T01:04:04.173Z,99034.34
2018-10-19T01:06:33.347Z,99028.79
2018-10-19T01:09:02.891Z,99029.11
2018-10-19T01:11:32.029Z,99030.79
2018-10-19T01:14:01.316Z,99035.14
2018-10-19T01:16:30.555Z,99037.55
2018-10-19T01:18:59.740Z,99034.67
2018-10-19T01:21:28.968Z,99036.58
2018-10-19T01:23:58.177Z,99041.73
2018-10-19T01:26:27.930Z,99042.36
2018-10-19T01:28:57.169Z,99048.03
2018-10-19T01:31:26.320Z,99049.73
2018-10-19T01:33:55.901Z,99049.31
2018-10-19T01:36:30.643Z,99044.32
2018-10-19T01:38:59.944Z,99049.75
2018-10-19T01:41:29.067Z,99044.72
2018-10-19T01:43:58.253Z,99047.95
2018-10-19T01:46:27.453Z,99046.05
2018-10-19T01:48:56.622Z,99050.91
2018-10-19T01:51:25.859Z,99053.88
2018-10-19T01:53:55.035Z,99048.42
2018-10-19T01:56:24.177Z,99050.42
2018-10-19T01:58:53.392Z,99050.08
2018-10-19T02:01:22.982Z,99053.56
2018-10-19T02:03:52.366Z,99058.60
2018-10-19T02:06:21.579Z,99058.09
2018-10-19T02:08:50.726Z,99058.65
2018-10-19T02:11:19.905Z,99049.91
2018-10-19T02:13:49.081Z,99054.77
2018-10-19T02:16:18.241Z,99050.52
2018-10-19T02:18:47.392Z,99046.81
2018-10-19T02:21:16.557Z,99051.34
2018-10-19T02:23:45.705Z,99055.30
2018-10-19T02:26:14.867Z,99053.27
2018-10-19T02:28:44.076Z,99051.62
2018-10-19T02:31:13.249Z,99055.57
2018-10-19T02:33:42.397Z,99054.50
2018-10-19T02:36:11.581Z,99059.67
2018-10-19T02:38:40.809Z,99060.66
2018-10-19T02:41:10.091Z,99062.45
2018-10-19T02:43:39.269Z,99060.77
2018-10-19T02:46:08.443Z,99067.59
2018-10-19T02:48:37.687Z,99064.00
2018-10-19T02:51:07.127Z,99068.01
2018-10-19T02:53:36.446Z,99064.42
2018-10-19T02:56:05.691Z,99073.97
2018-10-19T02:58:34.919Z,99078.73
2018-10-19T03:01:04.058Z,99075.50
2018-10-19T03:03:33.334Z,99072.99
2018-10-19T03:06:02.599Z,99072.48
2018-10-19T03:08:31.771Z,99076.89
2018-10-19T03:11:01.063Z,99081.45
2018-10-19T03:13:30.372Z,99087.25
2018-10-19T03:15:59.891Z,99090.87
2018-10-19T03:18:29.077Z,99093.45
2018-10-19T03:20:58.369Z,99087.03
2018-10-19T03:23:27.445Z,99093.18
2018-10-19T03:25:56.711Z,99092.20
2018-10-19T03:28:25.907Z,99085.81
2018-10-19T03:30:55.120Z,99079.96
2018-10-19T03:33:24.327Z,99077.34
2018-10-19T03:35:53.556Z,99074.69
2018-10-19T03:38:22.719Z,99075.50
2018-10-19T03:40:51.878Z,99076.78
2018-10-19T03:43:21.060Z,99078.92
2018-10-19T03:45:50.362Z,99078.92
2018-10-19T03:48:19.539Z,99084.37
2018-10-19T03:50:48.745Z,99083.33
2018-10-19T03:53:17.986Z,99077.45
2018-10-19T03:55:47.060Z,99080.78
2018-10-19T03:58:16.258Z,99078.11
2018-10-19T04:00:45.431Z,99076.78
2018-10-19T04:03:14.709Z,99073.05
2018-10-19T04:05:43.862Z,99073.35
2018-10-19T04:08:13.215Z,99078.92
2018-10-19T04:10:42.530Z,99077.81
2018-10-19T04:13:11.924Z,99082.05
2018-10-19T04:15:41.073Z,99073.70
2018-10-19T04:18:10.250Z,99075.20
2018-10-19T04:20:39.422Z,99083.44
2018-10-19T04:23:09.720Z,99083.69
2018-10-19T04:25:39.752Z,99085.17
2018-10-19T04:28:08.881Z,99078.61
2018-10-19T04:30:38.425Z,99083.89
2018-10-19T04:33:07.800Z,99086.63
2018-10-19T04:35:36.964Z,99087.30
2018-10-19T04:38:06.127Z,99088.41
2018-10-19T04:40:35.277Z,99089.90
2018-10-19T04:43:04.946Z,99089.72
2018-10-19T04:45:34.166Z,99093.66
2018-10-19T04:48:03.908Z,99095.50
2018-10-19T04:50:33.157Z,99097.98
2018-10-19T04:53:03.072Z,99093.05
2018-10-19T04:55:32.186Z,99095.56
2018-10-19T04:58:01.396Z,99083.97
2018-10-19T05:00:30.577Z,99089.08
2018-10-19T05:02:59.757Z,99090.80
2018-10-19T05:05:29.057Z,99091.19
2018-10-19T05:07:58.076Z,99095.12
2018-10-19T05:10:27.244Z,99100.77
2018-10-19T05:12:56.466Z,99101.58
2018-10-19T05:15:25.565Z,99106.23
2018-10-19T05:17:54.705Z,99117.32
2018-10-19T05:20:23.901Z,99117.18
2018-10-19T05:22:53.145Z,99119.60
2018-10-19T05:25:22.309Z,99122.33
2018-10-19T05:27:51.484Z,99116.28
2018-10-19T05:30:20.663Z,99125.66
2018-10-19T05:32:49.871Z,99129.93
2018-10-19T05:35:19.040Z,99129.59
2018-10-19T05:37:48.310Z,99131.70
2018-10-19T05:40:17.491Z,99135.63
2018-10-19T05:42:47.097Z,99136.76
2018-10-19T05:45:16.310Z,99142.66
2018-10-19T05:47:45.505Z,99141.13
2018-10-19T05:50:14.699Z,99148.36
2018-10-19T05:52:43.827Z,99155.59
2018-10-19T05:55:13.041Z,99152.92
2018-10-19T05:57:42.227Z,99161.22
2018-10-19T06:00:12.332Z,99161.80
2018-10-19T06:02:41.612Z,99161.56
2018-10-19T06:05:10.846Z,99166.23
2018-10-19T06:07:39.998Z,99171.55
2018-10-19T06:10:09.669Z,99177.45
2018-10-19T06:12:39.887Z,99178.79
2018-10-19T06:15:09.766Z,99183.66
2018-10-19T06:17:38.941Z,99189.88
2018-10-19T06:20:08.281Z,99188.37
2018-10-19T06:22:37.384Z,99188.80
2018-10-19T06:25:06.764Z,99193.98
2018-10-19T06:27:35.926Z,99201.02
2018-10-19T06:30:06.005Z,99205.34
2018-10-19T06:32:35.167Z,99211.28
2018-10-19T06:35:04.481Z,99213.77
2018-10-19T06:37:33.703Z,99209.90
2018-10-19T06:40:02.892Z,99209.00
2018-10-19T06:42:32.077Z,99204.40
2018-10-19T06:45:01.286Z,99206.06
2018-10-19T06:47:30.446Z,99208.95
2018-10-19T06:49:59.697Z,99212.55
2018-10-19T06:52:28.798Z,99207.80
2018-10-19T06:54:58.011Z,99209.40
2018-10-19T06:57:28.423Z,99215.30
2018-10-19T06:59:57.602Z,99214.67
2018-10-19T07:02:26.765Z,99220.27
2018-10-19T07:04:56.248Z,99219.62
2018-10-19T07:07:25.366Z,99225.33
2018-10-19T07:09:54.551Z,99228.53
2018-10-19T07:12:23.785Z,99236.70
2018-10-19T07:14:52.968Z,99238.09
2018-10-19T07:17:22.147Z,99241.12
2018-10-19T07:19:51.462Z,99231.84
2018-10-19T07:22:20.626Z,99232.01
2018-10-19T07:24:49.795Z,99230.81
2018-10-19T07:27:18.990Z,99238.67
2018-10-19T07:29:48.252Z,99238.87
2018-10-19T07:32:17.419Z,99236.02
2018-10-19T07:34:46.831Z,99239.15
2018-10-19T07:37:16.201Z,99250.17
2018-10-19T07:39:45.379Z,99248.68
2018-10-19T07:42:14.627Z,99251.70
2018-10-19T07:44:43.870Z,99249.91
2018-10-19T07:47:13.142Z,99251.91
2018-10-19T07:49:42.298Z,99252.67
2018-10-19T07:52:11.532Z,99254.92
2018-10-19T07:54:40.677Z,99254.39
2018-10-19T07:57:09.923Z,99251.98
2018-10-19T07:59:39.107Z,99258.81
2018-10-19T08:02:08.377Z,99258.61
2018-10-19T08:04:37.490Z,99249.00
2018-10-19T08:07:06.914Z,99253.79
2018-10-19T08:09:36.091Z,99256.30
2018-10-19T08:12:05.349Z,99260.00
2018-10-19T08:14:34.525Z,99248.66
2018-10-19T08:17:03.808Z,99253.84
2018-10-19T08:19:32.990Z,99264.05
2018-10-19T08:22:02.150Z,99264.95
2018-10-19T08:24:31.316Z,99263.95
2018-10-19T08:27:00.499Z,99258.14
2018-10-19T08:29:29.682Z,99262.73
2018-10-19T08:31:58.873Z,99262.34
2018-10-19T08:34:28.029Z,99258.62
2018-10-19T08:36:57.215Z,99261.69
2018-10-19T08:39:26.390Z,99259.78
2018-10-19T08:41:55.599Z,99260.87
2018-10-19T08:44:25.657Z,99266.22
2018-10-19T08:46:54.844Z,99274.10
2018-10-19T08:49:24.010Z,99269.38
2018-10-19T08:51:53.263Z,99262.16
2018-10-19T08:54:22.437Z,99263.19
2018-10-19T08:56:51.707Z,99248.88
2018-10-19T08:59:20.861Z,99252.05
2018-10-19T09:01:50.015Z,99249.31
2018-10-19T09:04:19.213Z,99251.83
2018-10-19T09:06:48.446Z,99255.38
2018-10-19T09:09:17.586Z,99253.53
2018-10-19T09:11:46.842Z,99252.54
2018-10-19T09:14:27.285Z,99250.47
2018-10-19T09:16:56.488Z,99248.55
2018-10-19T09:19:25.656Z,99246.45
2018-10-19T09:21:54.965Z,99240.14
2018-10-19T09:24:24.187Z,99241.80
2018-10-19T09:26:53.355Z,99242.08
2018-10-19T09:29:22.510Z,99242.56
2018-10-19T09:31:51.712Z,99239.09
2018-10-19T09:34:20.877Z,99243.43
2018-10-19T09:36:50.177Z,99243.42
2018-10-19T09:39:19.236Z,99245.31
2018-10-19T09:41:49.182Z,99247.16
2018-10-19T09:44:18.370Z,99242.77
2018-10-19T09:46:47.659Z,99243.66
2018-10-19T09:49:17.774Z,99244.00
2018-10-19T09:51:46.927Z,99238.87
2018-10-19T09:54:16.125Z,99240.21
2018-10-19T09:56:45.321Z,99241.03
2018-10-19T09:59:14.496Z,99237.23
2018-10-19T10:01:43.693Z,99239.16
2018-10-19T10:04:13.774Z,99236.71
2018-10-19T10:06:42.955Z,99236.46
2018-10-19T10:27:34.691Z,99232.09
2018-10-19T10:30:03.921Z,99227.72
2018-10-19T10:32:33.044Z,99215.28
2018-10-19T10:35:02.246Z,99219.05
2018-10-19T10:37:31.366Z,99218.12
2018-10-19T10:40:00.540Z,99217.16
2018-10-19T10:42:29.668Z,99207.25
2018-10-19T10:44:58.807Z,99201.14
2018-10-19T10:47:28.105Z,99211.83
2018-10-19T10:49:57.582Z,99201.96
2018-10-19T10:52:26.744Z,99203.97
2018-10-19T10:54:55.944Z,99207.13
2018-10-19T10:57:25.041Z,99198.97
2018-10-19T10:59:54.205Z,99200.12
2018-10-19T11:02:23.338Z,99199.31
2018-10-19T11:04:52.499Z,99192.81
2018-10-19T11:07:21.785Z,99194.47
2018-10-19T11:09:50.818Z,99187.05
2018-10-19T11:12:20.034Z,99180.92
2018-10-19T11:14:49.180Z,99182.32
2018-10-19T11:17:18.698Z,99182.59
2018-10-19T11:19:47.890Z,99175.55
2018-10-19T11:22:18.489Z,99175.70
2018-10-19T11:24:47.613Z,99168.56
2018-10-19T11:27:17.002Z,99166.77
2018-10-19T11:29:46.169Z,99165.53
2018-10-19T11:32:15.269Z,99159.67
2018-10-19T11:34:44.425Z,99158.19
2018-10-19T11:37:13.600Z,99156.69
2018-10-19T11:39:53.810Z,99157.36
2018-10-19T11:42:22.906Z,99149.88
2018-10-19T11:44:52.033Z,99147.22
2018-10-19T11:47:21.179Z,99146.36
2018-10-19T11:49:50.317Z,99142.89
2018-10-19T11:52:19.406Z,99137.19
2018-10-19T11:54:48.567Z,99138.28
2018-10-19T11:57:17.674Z,99138.70
2018-10-19T11:59:46.816Z,99142.50
2018-10-19T12:02:16.077Z,99135.62
2018-10-19T12:04:45.195Z,99139.03
2018-10-19T12:07:14.375Z,99135.88
2018-10-19T12:09:43.443Z,99135.83
2018-10-19T12:12:12.546Z,99123.84
2018-10-19T12:14:42.339Z,99127.52
2018-10-19T12:17:11.682Z,99112.50
2018-10-19T12:19:40.754Z,99125.90
2018-10-19T12:22:09.885Z,99118.96
2018-10-19T12:24:39.018Z,99124.41
2018-10-19T12:27:08.544Z,99116.47
2018-10-19T12:29:37.574Z,99118.58
2018-10-19T12:32:07.350Z,99110.56
2018-10-19T12:34:36.440Z,99115.59
2018-10-19T12:37:06.199Z,99117.89
2018-10-19T12:39:35.417Z,99110.17
2018-10-19T12:42:04.591Z,99113.44
2018-10-19T12:44:34.002Z,99113.93
2018-10-19T12:47:14.331Z,99112.19
2018-10-19T12:49:44.178Z,99112.47
2018-10-19T12:52:13.306Z,99102.54
2018-10-19T12:54:42.467Z,99110.06
2018-10-19T12:57:12.608Z,99102.23
2018-10-19T12:59:43.289Z,99106.39
2018-10-19T13:02:13.176Z,99104.75
2018-10-19T13:04:42.375Z,99106.59
2018-10-19T13:07:11.512Z,99113.97
2018-10-19T13:09:40.616Z,99108.91
2018-10-19T13:12:09.714Z,99110.03
2018-10-19T13:14:38.854Z,99106.47
2018-10-19T13:17:08.870Z,99102.90
2018-10-19T13:19:38.905Z,99100.21
2018-10-19T13:22:08.105Z,99101.34
2018-10-19T13:24:37.289Z,99104.88
2018-10-19T13:27:06.530Z,99093.47
2018-10-19T13:29:35.643Z,99092.83
2018-10-19T13:32:04.791Z,99091.59
2018-10-19T13:34:33.882Z,99085.41
2018-10-19T13:37:03.085Z,99090.45
2018-10-19T13:39:32.182Z,99084.16
2018-10-19T13:42:01.354Z,99082.69
2018-10-19T13:44:30.691Z,99090.08
2018-10-19T13:46:59.836Z,99081.50
2018-10-19T13:49:28.934Z,99090.02
2018-10-19T13:51:58.070Z,99092.63
2018-10-19T13:54:27.346Z,99094.55
2018-10-19T13:56:56.477Z,99088.61
2018-10-19T13:59:25.655Z,99090.36
2018-10-19T14:01:54.885Z,99095.86
2018-10-19T14:04:23.970Z,99092.21
2018-10-19T14:06:53.074Z,99087.25
2018-10-19T14:09:22.175Z,99092.61
2018-10-19T14:11:51.269Z,99089.48
2018-10-19T14:14:20.449Z,99079.37
2018-10-19T14:16:49.547Z,99089.93
2018-10-19T14:19:18.695Z,99099.83
2018-10-19T14:21:47.792Z,99091.91
2018-10-19T14:24:16.889Z,99094.08
2018-10-19T14:26:46.630Z,99098.72
2018-10-19T14:29:16.576Z,99099.25
2018-10-19T14:31:48.105Z,99104.23
2018-10-19T14:34:17.409Z,99102.41
2018-10-19T14:36:50.562Z,99101.64
2018-10-19T14:39:19.676Z,99101.20
2018-10-19T14:41:48.808Z,99097.95
2018-10-19T14:44:17.923Z,99098.75
2018-10-19T14:46:47.077Z,99094.65
2018-10-19T14:49:16.190Z,99098.59
2018-10-19T14:51:45.290Z,99102.11
2018-10-19T14:54:14.403Z,99104.67
2018-10-19T14:56:43.559Z,99101.27
2018-10-19T14:59:14.005Z,99101.83
2018-10-19T15:01:43.208Z,99103.90
2018-10-19T15:04:12.812Z,99108.52
2018-10-19T15:06:41.910Z,99110.44
2018-10-19T15:09:11.748Z,99105.30
2018-10-19T15:11:42.022Z,99108.81
2018-10-19T15:14:11.250Z,99105.19
2018-10-19T15:16:40.769Z,99100.19
2018-10-19T15:19:09.971Z,99108.95
2018-10-19T15:21:39.141Z,99103.37
2018-10-19T15:24:08.418Z,99106.45
2018-10-19T15:26:37.498Z,99107.88
2018-10-19T15:29:06.973Z,99105.21
2018-10-19T15:31:39.469Z,99114.16
2018-10-19T15:34:08.706Z,99116.67
2018-10-19T15:36:38.063Z,99116.15
2018-10-19T15:39:09.541Z,99116.99
2018-10-19T15:41:42.807Z,99120.53
2018-10-19T15:44:12.192Z,99122.17
2018-10-19T15:46:41.594Z,99134.05
2018-10-19T15:49:12.157Z,99125.73
2018-10-19T15:51:43.433Z,99134.89
2018-10-19T15:54:12.659Z,99132.52
2018-10-19T15:56:41.814Z,99134.16
2018-10-19T15:59:10.967Z,99147.09
2018-10-19T16:01:40.107Z,99141.20
2018-10-19T16:04:09.249Z,99146.03
2018-10-19T16:06:38.429Z,99143.36
2018-10-19T16:09:10.882Z,99153.55
2018-10-19T16:11:40.557Z,99146.02
2018-10-19T16:14:09.697Z,99157.32
2018-10-19T16:16:38.917Z,99155.45
2018-10-19T16:19:08.562Z,99156.80
2018-10-19T16:21:37.743Z,99160.02
2018-10-19T16:24:07.410Z,99161.09
2018-10-19T16:26:36.805Z,99164.84
2018-10-19T16:29:06.075Z,99160.23
2018-10-19T16:31:35.219Z,99166.95
2018-10-19T16:34:04.447Z,99166.66
2018-10-19T16:36:33.598Z,99164.72
2018-10-19T16:39:02.811Z,99168.19
2018-10-19T16:41:31.953Z,99170.77
2018-10-19T16:44:01.106Z,99178.50
2018-10-19T16:46:30.319Z,99175.78
2018-10-19T16:48:59.489Z,99181.38
2018-10-19T16:51:28.656Z,99190.24
2018-10-19T16:53:57.828Z,99193.22
2018-10-19T16:56:27.025Z,99195.31
2018-10-19T16:58:56.195Z,99188.84
2018-10-19T17:01:25.827Z,99199.56
2018-10-19T17:03:55.116Z,99198.66
2018-10-19T17:06:24.222Z,99203.89
2018-10-19T17:08:53.377Z,99200.53
2018-10-19T17:11:22.507Z,99199.85
2018-10-19T17:13:51.705Z,99207.33
2018-10-19T17:16:20.881Z,99208.58
2018-10-19T17:18:50.089Z,99210.45
2018-10-19T17:21:19.251Z,99214.66
2018-10-19T17:23:48.457Z,99213.53
2018-10-19T17:26:17.603Z,99210.25
2018-10-19T17:28:46.757Z,99219.00
2018-10-19T17:31:16.002Z,99222.72
2018-10-19T17:33:45.241Z,99216.72
2018-10-19T17:36:14.353Z,99219.61
2018-10-19T17:38:43.485Z,99225.94
2018-10-19T17:41:12.696Z,99226.66
2018-10-19T17:43:41.870Z,99223.11
2018-10-19T17:46:11.046Z,99216.83
2018-10-19T17:48:40.253Z,99219.72
2018-10-19T17:51:09.638Z,99218.21
2018-10-19T17:53:38.920Z,99224.28
2018-10-19T17:56:08.168Z,99220.95
2018-10-19T17:58:37.328Z,99223.84
2018-10-19T18:01:06.701Z,99226.42
2018-10-19T18:03:35.907Z,99229.39
2018-10-19T18:06:05.483Z,99232.36
2018-10-19T18:08:34.684Z,99226.67
2018-10-19T18:11:03.922Z,99220.95
2018-10-19T18:13:33.269Z,99230.18
2018-10-19T18:16:02.464Z,99227.05
2018-10-19T18:18:31.599Z,99226.61
2018-10-19T18:21:00.921Z,99223.30
2018-10-19T18:23:31.027Z,99229.81
2018-10-19T18:26:00.295Z,99235.60
2018-10-19T18:28:29.585Z,99226.28
2018-10-19T18:30:58.809Z,99227.56
2018-10-19T18:33:28.075Z,99229.40
2018-10-19T18:35:57.267Z,99232.04
2018-10-19T18:38:26.593Z,99243.48
2018-10-19T18:40:55.836Z,99232.86
2018-10-19T18:43:25.147Z,99240.50
2018-10-19T18:45:54.453Z,99243.08
2018-10-19T18:48:23.660Z,99239.47
2018-10-19T18:50:52.970Z,99242.81
2018-10-19T18:53:23.080Z,99246.10
2018-10-19T18:55:52.648Z,99251.93
2018-10-19T18:58:21.825Z,99251.17
2018-10-19T19:00:51.118Z,99262.73
2018-10-19T19:03:20.326Z,99270.70
2018-10-19T19:05:49.616Z,99263.95
2018-10-19T19:08:18.879Z,99267.42
2018-10-19T19:10:48.181Z,99266.03
2018-10-19T19:13:27.905Z,99266.20
2018-10-19T19:15:57.442Z,99269.95
2018-10-19T19:18:27.670Z,99263.48
2018-10-19T19:20:57.144Z,99266.67
2018-10-19T19:23:26.375Z,99279.16
2018-10-19T19:26:01.072Z,99271.05
2018-10-19T19:28:30.308Z,99277.41
2018-10-19T19:30:59.585Z,99285.33
2018-10-19T19:33:34.226Z,99283.16
2018-10-19T19:36:05.396Z,99284.91
2018-10-19T19:38:34.640Z,99288.83
2018-10-19T19:41:09.070Z,99289.89
2018-10-19T19:43:38.239Z,99295.75
2018-10-19T19:46:07.398Z,99293.30
2018-10-19T19:48:42.118Z,99305.85
2018-10-19T19:51:11.827Z,99303.66
2018-10-19T19:53:41.028Z,99307.09
2018-10-19T19:56:10.461Z,99305.75
2018-10-19T19:58:41.296Z,99305.45
2018-10-19T20:01:11.409Z,99303.23
2018-10-19T20:03:40.695Z,99308.52
2018-10-19T20:06:09.973Z,99314.92
2018-10-19T20:08:39.940Z,99311.95
2018-10-19T20:11:10.506Z,99314.10
2018-10-19T20:13:39.644Z,99311.59
2018-10-19T20:16:09.920Z,99316.34
2018-10-19T20:18:39.172Z,99315.80
2018-10-19T20:21:09.003Z,99319.62
2018-10-19T20:23:38.232Z,99313.17
2018-10-19T20:26:07.508Z,99320.53
2018-10-19T20:28:36.692Z,99324.53
2018-10-19T20:31:06.068Z,99333.23
2018-10-19T20:33:35.681Z,99329.68
2018-10-19T20:36:05.027Z,99332.50
2018-10-19T20:38:34.186Z,99337.83
2018-10-19T20:41:03.570Z,99345.37
2018-10-19T20:43:32.748Z,99345.23
2018-10-19T20:46:01.940Z,99339.72
2018-10-19T20:48:31.082Z,99339.27
2018-10-19T20:51:00.630Z,99230.87
2018-10-19T20:53:29.801Z,99342.05
2018-10-19T20:55:58.965Z,99342.36
2018-10-19T20:58:28.139Z,99347.03
2018-10-19T21:00:57.332Z,99354.39
2018-10-19T21:03:26.514Z,99353.67
2018-10-19T21:05:55.836Z,99353.48
2018-10-19T21:08:26.920Z,99345.20
2018-10-19T21:10:56.147Z,99349.19
2018-10-19T21:13:25.336Z,99348.58
2018-10-19T21:15:56.220Z,99353.97
2018-10-19T21:18:25.476Z,99349.36
2018-10-19T21:20:59.458Z,99349.77
2018-10-19T21:23:28.748Z,99353.66
2018-10-19T21:25:57.919Z,99352.52
2018-10-19T21:28:27.995Z,99356.52
2018-10-19T21:30:57.149Z,99355.34
2018-10-19T21:33:26.354Z,99354.66
2018-10-19T21:35:55.514Z,99348.20
2018-10-19T21:38:24.684Z,99349.15
2018-10-19T21:40:53.921Z,99355.91
2018-10-19T21:43:23.060Z,99357.12
2018-10-19T21:45:52.266Z,99359.67
2018-10-19T21:48:21.406Z,99356.91
2018-10-19T21:50:50.587Z,99366.48
2018-10-19T21:53:19.755Z,99363.58
2018-10-19T21:55:48.929Z,99369.28
2018-10-19T21:58:18.105Z,99372.62
2018-10-19T22:00:47.282Z,99368.37
2018-10-19T22:03:16.438Z,99370.34
2018-10-19T22:05:45.610Z,99368.61
2018-10-19T22:08:16.153Z,99368.92
2018-10-19T22:10:47.075Z,99368.67
2018-10-19T22:13:16.290Z,99367.70
2018-10-19T22:15:45.388Z,99371.55
2018-10-19T22:18:14.589Z,99381.22
2018-10-19T22:20:43.770Z,99386.20
2018-10-19T22:23:13.012Z,99382.09
2018-10-19T22:25:42.572Z,99378.20
2018-10-19T22:28:11.768Z,99384.78
2018-10-19T22:30:40.967Z,99384.28
2018-10-19T22:33:44.628Z,99395.18
2018-10-19T22:36:27.695Z,99394.98
2018-10-19T22:39:09.431Z,99398.53
2018-10-19T22:41:39.105Z,99395.59
2018-10-19T22:44:08.291Z,99395.23
2018-10-19T22:46:39.756Z,99402.91
2018-10-19T22:49:09.224Z,99400.50
2018-10-19T22:51:42.283Z,99396.39
2018-10-19T22:54:11.434Z,99407.19
2018-10-19T22:56:40.650Z,99408.52
2018-10-19T22:59:09.847Z,99412.31
2018-10-19T23:01:38.975Z,99415.04
2018-10-19T23:04:08.323Z,99413.92
2018-10-19T23:06:37.502Z,99417.11
2018-10-19T23:09:08.498Z,99410.62
2018-10-19T23:11:37.860Z,99416.55
2018-10-19T23:14:07.523Z,99409.77
2018-10-19T23:16:36.678Z,99407.56
2018-10-19T23:19:06.139Z,99410.70
2018-10-19T23:21:35.441Z,99406.12
2018-10-19T23:24:05.395Z,99408.80
2018-10-19T23:26:34.610Z,99411.77
2018-10-19T23:29:04.308Z,99411.98
2018-10-19T23:31:33.585Z,99415.08
2018-10-19T23:34:02.844Z,99422.28
2018-10-19T23:36:32.061Z,99425.61
2018-10-19T23:39:01.248Z,99420.38
2018-10-19T23:41:30.410Z,99426.42
2018-10-19T23:43:59.590Z,99418.41
2018-10-19T23:46:28.771Z,99430.27
2018-10-19T23:48:57.998Z,99433.52
2018-10-19T23:51:27.185Z,99436.45
2018-10-19T23:53:56.366Z,99437.33
2018-10-19T23:56:25.546Z,99433.62
2018-10-19T23:58:54.744Z,99443.03
